Egegik, Alaska
Current Conditions -  °F | °C
As of 5:36 AM on Monday 20 Oct 2014 (Local Time) from PAII Reporting Station
Overcast Overcast  
Wind Chill: 28°   Ceiling: 5500
Heat Index: 28°   Visibility: 10mi
Dew Point: 27°   Wind: 0mph
Humidity: 93%   Direction: NA
Pressure: 29.15"   Gusts: NA
Location:  58.21°N, 157.37°W
Report Text: PAII 201336Z AUTO 00000KT 10SM OVC055 M02/M03 A2915 RMK AO1
Loading
Personal Weather Stations






























Interactive Weather Map
Tropical Storm Tracking
New forecast layout! Learn more

10-Day Weather Forecast

Advertisements
Track Severe Weather on mobile